sensor_id;sensor_type;location;lat;lon;timestamp;P1;durP1;ratioP1;P2;durP2;ratioP2
48987;SDS011;34799;51.440;-2.534;2023-04-01T00:02:13;14.35;;;3.28;;
48987;SDS011;34799;51.440;-2.534;2023-04-01T00:04:40;18.63;;;3.72;;
48987;SDS011;34799;51.440;-2.534;2023-04-01T00:07:09;19.92;;;3.33;;
48987;SDS011;34799;51.440;-2.534;2023-04-01T00:09:37;19.67;;;3.97;;
48987;SDS011;34799;51.440;-2.534;2023-04-01T00:12:04;17.48;;;3.70;;
48987;SDS011;34799;51.440;-2.534;2023-04-01T00:14:31;19.42;;;3.10;;
48987;SDS011;34799;51.440;-2.534;2023-04-01T00:16:58;20.13;;;3.75;;
48987;SDS011;34799;51.440;-2.534;2023-04-01T00:19:25;21.58;;;2.95;;
48987;SDS011;34799;51.440;-2.534;2023-04-01T00:21:52;13.48;;;3.42;;
48987;SDS011;34799;51.440;-2.534;2023-04-01T00:24:20;22.23;;;3.85;;
48987;SDS011;34799;51.440;-2.534;2023-04-01T00:26:47;27.83;;;4.05;;
48987;SDS011;34799;51.440;-2.534;2023-04-01T00:29:15;17.63;;;3.13;;
48987;SDS011;34799;51.440;-2.534;2023-04-01T00:31:42;17.45;;;3.38;;
48987;SDS011;34799;51.440;-2.534;2023-04-01T00:34:09;23.58;;;4.07;;
48987;SDS011;34799;51.440;-2.534;2023-04-01T00:36:36;20.45;;;3.53;;
48987;SDS011;34799;51.440;-2.534;2023-04-01T00:39:03;14.32;;;3.85;;
48987;SDS011;34799;51.440;-2.534;2023-04-01T00:41:31;15.00;;;3.15;;
48987;SDS011;34799;51.440;-2.534;2023-04-01T00:44:14;18.17;;;3.17;;
48987;SDS011;34799;51.440;-2.534;2023-04-01T00:46:49;11.18;;;2.55;;
48987;SDS011;34799;51.440;-2.534;2023-04-01T00:49:17;15.25;;;3.00;;
48987;SDS011;34799;51.440;-2.534;2023-04-01T00:51:47;13.77;;;2.92;;
48987;SDS011;34799;51.440;-2.534;2023-04-01T00:54:19;15.52;;;2.90;;
48987;SDS011;34799;51.440;-2.534;2023-04-01T00:56:53;12.27;;;3.28;;
48987;SDS011;34799;51.440;-2.534;2023-04-01T00:59:45;16.90;;;3.03;;
48987;SDS011;34799;51.440;-2.534;2023-04-01T01:02:16;13.90;;;2.53;;
48987;SDS011;34799;51.440;-2.534;2023-04-01T01:04:43;7.75;;;2.08;;
48987;SDS011;34799;51.440;-2.534;2023-04-01T01:10:07;13.68;;;3.22;;
48987;SDS011;34799;51.440;-2.534;2023-04-01T01:32:29;11.90;;;3.60;;
48987;SDS011;34799;51.440;-2.534;2023-04-01T01:37:51;21.38;;;3.08;;
48987;SDS011;34799;51.440;-2.534;2023-04-01T01:40:24;10.52;;;3.35;;
48987;SDS011;34799;51.440;-2.534;2023-04-01T01:42:54;16.80;;;3.60;;
48987;SDS011;34799;51.440;-2.534;2023-04-01T01:45:26;10.30;;;2.85;;
48987;SDS011;34799;51.440;-2.534;2023-04-01T01:47:54;11.68;;;3.22;;
48987;SDS011;34799;51.440;-2.534;2023-04-01T01:50:25;15.73;;;3.50;;
48987;SDS011;34799;51.440;-2.534;2023-04-01T01:53:06;11.68;;;2.28;;
48987;SDS011;34799;51.440;-2.534;2023-04-01T01:55:37;14.82;;;3.65;;
48987;SDS011;34799;51.440;-2.534;2023-04-01T02:00:55;13.82;;;3.28;;
48987;SDS011;34799;51.440;-2.534;2023-04-01T02:03:25;13.23;;;3.80;;
48987;SDS011;34799;51.440;-2.534;2023-04-01T02:05:57;12.05;;;3.50;;
48987;SDS011;34799;51.440;-2.534;2023-04-01T02:08:31;12.45;;;3.58;;
48987;SDS011;34799;51.440;-2.534;2023-04-01T02:11:08;10.95;;;3.70;;
48987;SDS011;34799;51.440;-2.534;2023-04-01T02:13:40;11.15;;;3.40;;
48987;SDS011;34799;51.440;-2.534;2023-04-01T02:16:13;13.85;;;3.55;;
48987;SDS011;34799;51.440;-2.534;2023-04-01T02:18:48;15.00;;;3.42;;
48987;SDS011;34799;51.440;-2.534;2023-04-01T02:21:19;15.07;;;3.55;;
48987;SDS011;34799;51.440;-2.534;2023-04-01T02:23:48;16.65;;;4.38;;
48987;SDS011;34799;51.440;-2.534;2023-04-01T02:26:17;15.80;;;4.78;;
48987;SDS011;34799;51.440;-2.534;2023-04-01T02:28:46;21.17;;;5.70;;
48987;SDS011;34799;51.440;-2.534;2023-04-01T02:31:15;12.65;;;3.47;;
48987;SDS011;34799;51.440;-2.534;2023-04-01T02:33:42;11.95;;;4.13;;
48987;SDS011;34799;51.440;-2.534;2023-04-01T02:36:10;19.20;;;3.72;;
48987;SDS011;34799;51.440;-2.534;2023-04-01T02:38:41;14.38;;;4.30;;
48987;SDS011;34799;51.440;-2.534;2023-04-01T02:41:11;13.95;;;3.55;;
48987;SDS011;34799;51.440;-2.534;2023-04-01T02:43:39;15.10;;;3.78;;
48987;SDS011;34799;51.440;-2.534;2023-04-01T02:46:07;18.88;;;4.65;;
48987;SDS011;34799;51.440;-2.534;2023-04-01T02:48:34;16.42;;;4.00;;
48987;SDS011;34799;51.440;-2.534;2023-04-01T02:51:01;12.68;;;3.92;;
48987;SDS011;34799;51.440;-2.534;2023-04-01T02:53:28;17.35;;;4.70;;
48987;SDS011;34799;51.440;-2.534;2023-04-01T02:55:55;15.77;;;3.97;;
48987;SDS011;34799;51.440;-2.534;2023-04-01T02:58:22;14.68;;;3.90;;
48987;SDS011;34799;51.440;-2.534;2023-04-01T03:00:50;16.27;;;3.95;;
48987;SDS011;34799;51.440;-2.534;2023-04-01T03:03:18;16.27;;;4.47;;
48987;SDS011;34799;51.440;-2.534;2023-04-01T03:05:45;11.98;;;4.22;;
48987;SDS011;34799;51.440;-2.534;2023-04-01T03:08:12;7.75;;;3.17;;
48987;SDS011;34799;51.440;-2.534;2023-04-01T03:10:39;11.00;;;3.17;;
48987;SDS011;34799;51.440;-2.534;2023-04-01T03:13:06;13.57;;;2.88;;
48987;SDS011;34799;51.440;-2.534;2023-04-01T03:15:33;15.38;;;3.58;;
48987;SDS011;34799;51.440;-2.534;2023-04-01T03:18:02;15.98;;;5.05;;
48987;SDS011;34799;51.440;-2.534;2023-04-01T03:20:29;11.98;;;4.18;;
48987;SDS011;34799;51.440;-2.534;2023-04-01T03:22:56;11.85;;;3.70;;
48987;SDS011;34799;51.440;-2.534;2023-04-01T03:25:26;10.43;;;3.78;;
48987;SDS011;34799;51.440;-2.534;2023-04-01T03:27:56;11.65;;;3.72;;
48987;SDS011;34799;51.440;-2.534;2023-04-01T03:30:26;12.00;;;3.15;;
48987;SDS011;34799;51.440;-2.534;2023-04-01T03:32:53;16.75;;;3.45;;
48987;SDS011;34799;51.440;-2.534;2023-04-01T03:35:20;10.85;;;3.53;;
48987;SDS011;34799;51.440;-2.534;2023-04-01T03:37:50;12.57;;;3.10;;
48987;SDS011;34799;51.440;-2.534;2023-04-01T03:40:17;15.43;;;3.70;;
48987;SDS011;34799;51.440;-2.534;2023-04-01T03:42:44;10.68;;;3.83;;
48987;SDS011;34799;51.440;-2.534;2023-04-01T03:45:13;11.93;;;3.45;;
48987;SDS011;34799;51.440;-2.534;2023-04-01T03:47:41;11.43;;;3.20;;
48987;SDS011;34799;51.440;-2.534;2023-04-01T03:50:09;14.52;;;4.47;;
48987;SDS011;34799;51.440;-2.534;2023-04-01T03:52:36;14.93;;;3.33;;
48987;SDS011;34799;51.440;-2.534;2023-04-01T03:55:04;9.70;;;3.40;;
48987;SDS011;34799;51.440;-2.534;2023-04-01T03:57:31;17.05;;;3.67;;
48987;SDS011;34799;51.440;-2.534;2023-04-01T04:00:04;20.33;;;4.43;;
48987;SDS011;34799;51.440;-2.534;2023-04-01T04:02:39;16.45;;;3.40;;
48987;SDS011;34799;51.440;-2.534;2023-04-01T04:05:07;12.80;;;3.10;;
48987;SDS011;34799;51.440;-2.534;2023-04-01T04:07:34;14.85;;;3.67;;
48987;SDS011;34799;51.440;-2.534;2023-04-01T04:10:05;18.42;;;3.83;;
48987;SDS011;34799;51.440;-2.534;2023-04-01T04:12:33;18.08;;;3.40;;
48987;SDS011;34799;51.440;-2.534;2023-04-01T04:15:00;14.43;;;3.60;;
48987;SDS011;34799;51.440;-2.534;2023-04-01T04:17:27;17.67;;;3.05;;
48987;SDS011;34799;51.440;-2.534;2023-04-01T04:19:55;14.55;;;2.95;;
48987;SDS011;34799;51.440;-2.534;2023-04-01T04:22:23;15.90;;;2.58;;
48987;SDS011;34799;51.440;-2.534;2023-04-01T04:24:51;18.20;;;2.95;;
48987;SDS011;34799;51.440;-2.534;2023-04-01T04:27:18;13.32;;;2.67;;
48987;SDS011;34799;51.440;-2.534;2023-04-01T04:30:05;14.52;;;3.20;;
48987;SDS011;34799;51.440;-2.534;2023-04-01T04:32:35;20.85;;;3.75;;
48987;SDS011;34799;51.440;-2.534;2023-04-01T04:35:02;14.38;;;2.33;;
48987;SDS011;34799;51.440;-2.534;2023-04-01T04:37:30;10.55;;;2.42;;
48987;SDS011;34799;51.440;-2.534;2023-04-01T04:39:57;14.00;;;2.67;;
48987;SDS011;34799;51.440;-2.534;2023-04-01T04:42:24;12.15;;;2.20;;
48987;SDS011;34799;51.440;-2.534;2023-04-01T04:44:55;9.63;;;2.28;;
48987;SDS011;34799;51.440;-2.534;2023-04-01T04:47:23;8.65;;;1.80;;
48987;SDS011;34799;51.440;-2.534;2023-04-01T04:49:50;13.35;;;2.78;;
48987;SDS011;34799;51.440;-2.534;2023-04-01T04:52:17;12.48;;;3.30;;
48987;SDS011;34799;51.440;-2.534;2023-04-01T04:54:45;13.02;;;2.85;;
48987;SDS011;34799;51.440;-2.534;2023-04-01T04:57:13;10.45;;;3.25;;
48987;SDS011;34799;51.440;-2.534;2023-04-01T04:59:48;11.55;;;2.60;;
48987;SDS011;34799;51.440;-2.534;2023-04-01T05:02:43;7.68;;;2.28;;
48987;SDS011;34799;51.440;-2.534;2023-04-01T05:05:10;12.55;;;2.53;;
48987;SDS011;34799;51.440;-2.534;2023-04-01T05:07:37;7.43;;;3.20;;
48987;SDS011;34799;51.440;-2.534;2023-04-01T05:10:04;9.75;;;2.80;;
48987;SDS011;34799;51.440;-2.534;2023-04-01T05:12:32;9.45;;;2.20;;
48987;SDS011;34799;51.440;-2.534;2023-04-01T05:15:06;12.63;;;3.53;;
48987;SDS011;34799;51.440;-2.534;2023-04-01T05:17:36;10.88;;;3.40;;
48987;SDS011;34799;51.440;-2.534;2023-04-01T05:20:04;10.85;;;3.10;;
48987;SDS011;34799;51.440;-2.534;2023-04-01T05:22:31;12.88;;;3.25;;
48987;SDS011;34799;51.440;-2.534;2023-04-01T05:24:59;12.27;;;3.97;;
48987;SDS011;34799;51.440;-2.534;2023-04-01T05:27:27;12.00;;;4.05;;
48987;SDS011;34799;51.440;-2.534;2023-04-01T05:29:55;12.98;;;4.00;;
48987;SDS011;34799;51.440;-2.534;2023-04-01T05:32:40;13.32;;;4.25;;
48987;SDS011;34799;51.440;-2.534;2023-04-01T05:35:07;11.07;;;3.70;;
48987;SDS011;34799;51.440;-2.534;2023-04-01T05:37:34;10.30;;;2.90;;
48987;SDS011;34799;51.440;-2.534;2023-04-01T05:40:03;11.55;;;3.50;;
48987;SDS011;34799;51.440;-2.534;2023-04-01T05:42:33;11.30;;;3.60;;
48987;SDS011;34799;51.440;-2.534;2023-04-01T05:45:02;12.95;;;3.22;;
48987;SDS011;34799;51.440;-2.534;2023-04-01T05:47:47;12.52;;;3.08;;
48987;SDS011;34799;51.440;-2.534;2023-04-01T05:50:14;8.18;;;3.05;;
48987;SDS011;34799;51.440;-2.534;2023-04-01T05:52:42;10.82;;;3.22;;
48987;SDS011;34799;51.440;-2.534;2023-04-01T05:55:10;10.48;;;3.17;;
48987;SDS011;34799;51.440;-2.534;2023-04-01T05:57:38;8.20;;;3.42;;
48987;SDS011;34799;51.440;-2.534;2023-04-01T06:00:05;13.95;;;3.47;;
48987;SDS011;34799;51.440;-2.534;2023-04-01T06:02:38;13.27;;;4.18;;
48987;SDS011;34799;51.440;-2.534;2023-04-01T06:05:17;12.55;;;4.43;;
48987;SDS011;34799;51.440;-2.534;2023-04-01T06:07:54;10.52;;;3.55;;
48987;SDS011;34799;51.440;-2.534;2023-04-01T06:11:04;13.68;;;3.35;;
48987;SDS011;34799;51.440;-2.534;2023-04-01T06:16:39;15.10;;;3.65;;
48987;SDS011;34799;51.440;-2.534;2023-04-01T06:19:13;11.73;;;2.97;;
48987;SDS011;34799;51.440;-2.534;2023-04-01T06:41:43;13.98;;;3.40;;
48987;SDS011;34799;51.440;-2.534;2023-04-01T06:47:30;7.78;;;2.70;;
48987;SDS011;34799;51.440;-2.534;2023-04-01T06:57:05;5.45;;;1.77;;
48987;SDS011;34799;51.440;-2.534;2023-04-01T06:59:45;9.43;;;2.22;;
48987;SDS011;34799;51.440;-2.534;2023-04-01T07:02:24;9.07;;;1.83;;
48987;SDS011;34799;51.440;-2.534;2023-04-01T07:05:08;11.15;;;2.38;;
48987;SDS011;34799;51.440;-2.534;2023-04-01T07:07:39;8.32;;;2.30;;
48987;SDS011;34799;51.440;-2.534;2023-04-01T07:14:10;10.27;;;2.60;;
48987;SDS011;34799;51.440;-2.534;2023-04-01T07:19:42;8.65;;;2.45;;
48987;SDS011;34799;51.440;-2.534;2023-04-01T07:22:32;8.15;;;2.40;;
48987;SDS011;34799;51.440;-2.534;2023-04-01T07:25:17;12.50;;;3.22;;
48987;SDS011;34799;51.440;-2.534;2023-04-01T07:28:17;12.07;;;3.47;;
48987;SDS011;34799;51.440;-2.534;2023-04-01T07:33:39;11.23;;;2.42;;
48987;SDS011;34799;51.440;-2.534;2023-04-01T07:41:59;12.23;;;1.52;;
48987;SDS011;34799;51.440;-2.534;2023-04-01T07:47:33;6.65;;;1.95;;
48987;SDS011;34799;51.440;-2.534;2023-04-01T07:50:39;4.30;;;1.52;;
48987;SDS011;34799;51.440;-2.534;2023-04-01T07:58:49;9.55;;;2.45;;
48987;SDS011;34799;51.440;-2.534;2023-04-01T08:01:59;7.85;;;2.00;;
48987;SDS011;34799;51.440;-2.534;2023-04-01T08:04:53;8.25;;;2.35;;
48987;SDS011;34799;51.440;-2.534;2023-04-01T08:07:40;6.22;;;1.83;;
48987;SDS011;34799;51.440;-2.534;2023-04-01T08:10:36;4.10;;;1.55;;
48987;SDS011;34799;51.440;-2.534;2023-04-01T08:19:29;2.85;;;1.20;;
48987;SDS011;34799;51.440;-2.534;2023-04-01T08:22:16;3.15;;;1.27;;
48987;SDS011;34799;51.440;-2.534;2023-04-01T08:24:51;4.95;;;0.98;;
48987;SDS011;34799;51.440;-2.534;2023-04-01T08:27:24;7.53;;;1.08;;
48987;SDS011;34799;51.440;-2.534;2023-04-01T08:32:37;2.08;;;0.50;;
48987;SDS011;34799;51.440;-2.534;2023-04-01T08:35:14;5.63;;;1.25;;
48987;SDS011;34799;51.440;-2.534;2023-04-01T08:37:46;2.22;;;0.88;;
48987;SDS011;34799;51.440;-2.534;2023-04-01T08:55:49;0.80;;;0.10;;
48987;SDS011;34799;51.440;-2.534;2023-04-01T09:07:37;0.20;;;0.00;;
48987;SDS011;34799;51.440;-2.534;2023-04-01T09:10:25;0.65;;;0.20;;
48987;SDS011;34799;51.440;-2.534;2023-04-01T09:13:47;1.13;;;0.20;;
48987;SDS011;34799;51.440;-2.534;2023-04-01T09:16:24;1.17;;;0.00;;
48987;SDS011;34799;51.440;-2.534;2023-04-01T09:27:30;1.30;;;0.10;;
48987;SDS011;34799;51.440;-2.534;2023-04-01T09:35:45;0.70;;;0.20;;
48987;SDS011;34799;51.440;-2.534;2023-04-01T09:38:30;0.52;;;0.10;;
48987;SDS011;34799;51.440;-2.534;2023-04-01T09:41:31;0.90;;;0.10;;
48987;SDS011;34799;51.440;-2.534;2023-04-01T09:49:55;0.50;;;0.00;;
48987;SDS011;34799;51.440;-2.534;2023-04-01T10:00:56;0.30;;;0.08;;
48987;SDS011;34799;51.440;-2.534;2023-04-01T10:41:23;4.65;;;2.20;;
48987;SDS011;34799;51.440;-2.534;2023-04-01T10:50:45;3.58;;;1.85;;
48987;SDS011;34799;51.440;-2.534;2023-04-01T10:53:30;5.03;;;2.65;;
48987;SDS011;34799;51.440;-2.534;2023-04-01T11:31:50;3.88;;;2.00;;
48987;SDS011;34799;51.440;-2.534;2023-04-01T11:34:40;4.40;;;1.98;;
48987;SDS011;34799;51.440;-2.534;2023-04-01T11:50:11;8.23;;;4.15;;
48987;SDS011;34799;51.440;-2.534;2023-04-01T12:04:09;10.63;;;5.53;;
48987;SDS011;34799;51.440;-2.534;2023-04-01T12:12:32;10.45;;;5.78;;
48987;SDS011;34799;51.440;-2.534;2023-04-01T12:17:54;11.80;;;5.93;;
48987;SDS011;34799;51.440;-2.534;2023-04-01T12:20:50;10.07;;;5.47;;
48987;SDS011;34799;51.440;-2.534;2023-04-01T12:32:09;14.57;;;7.13;;
48987;SDS011;34799;51.440;-2.534;2023-04-01T12:35:30;13.02;;;6.25;;
48987;SDS011;34799;51.440;-2.534;2023-04-01T12:41:09;11.82;;;5.82;;
48987;SDS011;34799;51.440;-2.534;2023-04-01T12:47:07;11.27;;;5.82;;
48987;SDS011;34799;51.440;-2.534;2023-04-01T12:52:39;10.80;;;5.30;;
48987;SDS011;34799;51.440;-2.534;2023-04-01T12:55:18;9.13;;;5.22;;
48987;SDS011;34799;51.440;-2.534;2023-04-01T13:23:56;7.47;;;3.60;;
48987;SDS011;34799;51.440;-2.534;2023-04-01T13:26:35;6.20;;;3.13;;
48987;SDS011;34799;51.440;-2.534;2023-04-01T13:29:23;6.22;;;2.78;;
48987;SDS011;34799;51.440;-2.534;2023-04-01T13:42:57;6.05;;;3.03;;
48987;SDS011;34799;51.440;-2.534;2023-04-01T13:48:33;8.48;;;4.03;;
48987;SDS011;34799;51.440;-2.534;2023-04-01T13:51:30;9.82;;;3.20;;
48987;SDS011;34799;51.440;-2.534;2023-04-01T13:56:57;5.50;;;2.65;;
48987;SDS011;34799;51.440;-2.534;2023-04-01T14:08:20;5.30;;;2.08;;
48987;SDS011;34799;51.440;-2.534;2023-04-01T14:11:19;4.70;;;2.35;;
48987;SDS011;34799;51.440;-2.534;2023-04-01T14:16:31;3.65;;;2.03;;
48987;SDS011;34799;51.440;-2.534;2023-04-01T14:27:24;3.25;;;2.10;;
48987;SDS011;34799;51.440;-2.534;2023-04-01T14:30:14;3.03;;;1.70;;
48987;SDS011;34799;51.440;-2.534;2023-04-01T14:50:14;3.03;;;1.50;;
48987;SDS011;34799;51.440;-2.534;2023-04-01T14:52:57;4.05;;;1.60;;
48987;SDS011;34799;51.440;-2.534;2023-04-01T14:55:48;3.47;;;1.50;;
48987;SDS011;34799;51.440;-2.534;2023-04-01T14:58:20;2.83;;;1.40;;
48987;SDS011;34799;51.440;-2.534;2023-04-01T15:12:00;4.88;;;1.35;;
48987;SDS011;34799;51.440;-2.534;2023-04-01T15:14:46;2.75;;;1.45;;
48987;SDS011;34799;51.440;-2.534;2023-04-01T15:20:38;2.58;;;1.00;;
48987;SDS011;34799;51.440;-2.534;2023-04-01T15:31:30;1.83;;;1.00;;
48987;SDS011;34799;51.440;-2.534;2023-04-01T15:34:09;2.42;;;1.05;;
48987;SDS011;34799;51.440;-2.534;2023-04-01T15:37:12;1.80;;;0.60;;
48987;SDS011;34799;51.440;-2.534;2023-04-01T15:40:08;2.47;;;0.70;;
48987;SDS011;34799;51.440;-2.534;2023-04-01T15:42:43;2.42;;;0.60;;
48987;SDS011;34799;51.440;-2.534;2023-04-01T15:48:40;2.35;;;0.40;;
48987;SDS011;34799;51.440;-2.534;2023-04-01T15:51:14;0.90;;;0.50;;
48987;SDS011;34799;51.440;-2.534;2023-04-01T15:54:01;1.52;;;0.40;;
48987;SDS011;34799;51.440;-2.534;2023-04-01T15:56:45;0.90;;;0.32;;
48987;SDS011;34799;51.440;-2.534;2023-04-01T16:01:59;1.42;;;0.40;;
48987;SDS011;34799;51.440;-2.534;2023-04-01T16:13:04;0.98;;;0.40;;
48987;SDS011;34799;51.440;-2.534;2023-04-01T16:15:59;2.78;;;0.30;;
48987;SDS011;34799;51.440;-2.534;2023-04-01T16:21:57;1.85;;;0.30;;
48987;SDS011;34799;51.440;-2.534;2023-04-01T16:25:05;1.27;;;0.40;;
48987;SDS011;34799;51.440;-2.534;2023-04-01T16:30:36;0.77;;;0.50;;
48987;SDS011;34799;51.440;-2.534;2023-04-01T16:38:59;1.50;;;1.00;;
48987;SDS011;34799;51.440;-2.534;2023-04-01T16:44:54;1.02;;;0.30;;
48987;SDS011;34799;51.440;-2.534;2023-04-01T16:47:35;2.25;;;0.60;;
48987;SDS011;34799;51.440;-2.534;2023-04-01T16:50:19;3.03;;;1.05;;
48987;SDS011;34799;51.440;-2.534;2023-04-01T16:58:22;2.45;;;0.50;;
48987;SDS011;34799;51.440;-2.534;2023-04-01T17:03:44;1.80;;;0.43;;
48987;SDS011;34799;51.440;-2.534;2023-04-01T17:06:22;1.45;;;0.40;;
48987;SDS011;34799;51.440;-2.534;2023-04-01T17:12:27;2.33;;;0.40;;
48987;SDS011;34799;51.440;-2.534;2023-04-01T17:20:31;2.28;;;0.38;;
48987;SDS011;34799;51.440;-2.534;2023-04-01T17:25:38;0.50;;;0.28;;
48987;SDS011;34799;51.440;-2.534;2023-04-01T17:37:00;0.30;;;0.20;;
48987;SDS011;34799;51.440;-2.534;2023-04-01T17:42:51;0.22;;;0.10;;
48987;SDS011;34799;51.440;-2.534;2023-04-01T17:45:24;1.77;;;0.20;;
48987;SDS011;34799;51.440;-2.534;2023-04-01T17:53:37;0.35;;;0.10;;
48987;SDS011;34799;51.440;-2.534;2023-04-01T17:56:38;0.63;;;0.20;;
48987;SDS011;34799;51.440;-2.534;2023-04-01T18:02:57;0.63;;;0.10;;
48987;SDS011;34799;51.440;-2.534;2023-04-01T18:07:56;0.63;;;0.10;;
48987;SDS011;34799;51.440;-2.534;2023-04-01T18:10:43;1.23;;;0.17;;
48987;SDS011;34799;51.440;-2.534;2023-04-01T18:18:56;1.13;;;0.20;;
48987;SDS011;34799;51.440;-2.534;2023-04-01T18:26:44;1.42;;;0.20;;
48987;SDS011;34799;51.440;-2.534;2023-04-01T18:37:31;2.33;;;0.45;;
48987;SDS011;34799;51.440;-2.534;2023-04-01T18:40:22;2.00;;;0.60;;
48987;SDS011;34799;51.440;-2.534;2023-04-01T18:43:05;0.93;;;0.55;;
48987;SDS011;34799;51.440;-2.534;2023-04-01T18:45:57;2.90;;;0.75;;
48987;SDS011;34799;51.440;-2.534;2023-04-01T18:48:41;1.95;;;0.80;;
48987;SDS011;34799;51.440;-2.534;2023-04-01T18:54:27;1.77;;;0.93;;
48987;SDS011;34799;51.440;-2.534;2023-04-01T18:57:02;1.92;;;0.80;;
48987;SDS011;34799;51.440;-2.534;2023-04-01T19:00:02;3.90;;;1.92;;
48987;SDS011;34799;51.440;-2.534;2023-04-01T19:02:37;1.58;;;0.85;;
48987;SDS011;34799;51.440;-2.534;2023-04-01T19:05:36;2.25;;;0.75;;
48987;SDS011;34799;51.440;-2.534;2023-04-01T19:22:11;1.42;;;0.40;;
48987;SDS011;34799;51.440;-2.534;2023-04-01T19:24:51;0.88;;;0.32;;
48987;SDS011;34799;51.440;-2.534;2023-04-01T19:27:35;1.63;;;0.50;;
48987;SDS011;34799;51.440;-2.534;2023-04-01T19:38:55;0.73;;;0.40;;
48987;SDS011;34799;51.440;-2.534;2023-04-01T19:41:53;1.30;;;0.35;;
48987;SDS011;34799;51.440;-2.534;2023-04-01T19:44:37;1.15;;;0.40;;
48987;SDS011;34799;51.440;-2.534;2023-04-01T19:53:13;1.10;;;0.30;;
48987;SDS011;34799;51.440;-2.534;2023-04-01T19:58:32;0.80;;;0.30;;
48987;SDS011;34799;51.440;-2.534;2023-04-01T20:01:18;2.05;;;0.50;;
48987;SDS011;34799;51.440;-2.534;2023-04-01T20:04:13;0.85;;;0.20;;
48987;SDS011;34799;51.440;-2.534;2023-04-01T20:06:52;1.20;;;0.20;;
48987;SDS011;34799;51.440;-2.534;2023-04-01T20:09:50;0.45;;;0.20;;
48987;SDS011;34799;51.440;-2.534;2023-04-01T20:12:38;0.40;;;0.10;;
48987;SDS011;34799;51.440;-2.534;2023-04-01T20:18:04;0.55;;;0.20;;
48987;SDS011;34799;51.440;-2.534;2023-04-01T20:20:41;2.45;;;0.20;;
48987;SDS011;34799;51.440;-2.534;2023-04-01T20:23:30;0.82;;;0.40;;
48987;SDS011;34799;51.440;-2.534;2023-04-01T20:26:19;0.32;;;0.15;;
48987;SDS011;34799;51.440;-2.534;2023-04-01T20:34:18;2.40;;;0.50;;
48987;SDS011;34799;51.440;-2.534;2023-04-01T20:37:29;1.23;;;0.57;;
48987;SDS011;34799;51.440;-2.534;2023-04-01T20:40:34;1.08;;;0.30;;
48987;SDS011;34799;51.440;-2.534;2023-04-01T20:43:23;4.55;;;1.90;;
48987;SDS011;34799;51.440;-2.534;2023-04-01T20:51:31;2.20;;;0.90;;
48987;SDS011;34799;51.440;-2.534;2023-04-01T20:54:09;1.13;;;0.50;;
48987;SDS011;34799;51.440;-2.534;2023-04-01T20:56:57;1.40;;;0.47;;
48987;SDS011;34799;51.440;-2.534;2023-04-01T21:02:32;4.63;;;0.75;;
48987;SDS011;34799;51.440;-2.534;2023-04-01T21:08:33;0.88;;;0.50;;
48987;SDS011;34799;51.440;-2.534;2023-04-01T21:29:58;1.05;;;0.73;;
48987;SDS011;34799;51.440;-2.534;2023-04-01T21:43:36;2.00;;;0.65;;
48987;SDS011;34799;51.440;-2.534;2023-04-01T21:48:56;2.95;;;0.50;;
48987;SDS011;34799;51.440;-2.534;2023-04-01T22:00:33;1.73;;;0.60;;
48987;SDS011;34799;51.440;-2.534;2023-04-01T22:17:40;1.45;;;0.70;;
48987;SDS011;34799;51.440;-2.534;2023-04-01T22:20:10;0.85;;;0.60;;
48987;SDS011;34799;51.440;-2.534;2023-04-01T22:28:22;1.80;;;0.98;;
48987;SDS011;34799;51.440;-2.534;2023-04-01T22:31:02;1.25;;;0.60;;
48987;SDS011;34799;51.440;-2.534;2023-04-01T22:33:38;2.25;;;0.60;;
48987;SDS011;34799;51.440;-2.534;2023-04-01T22:37:04;1.02;;;0.43;;
48987;SDS011;34799;51.440;-2.534;2023-04-01T22:39:46;1.27;;;0.40;;
48987;SDS011;34799;51.440;-2.534;2023-04-01T22:42:40;6.28;;;0.93;;
48987;SDS011;34799;51.440;-2.534;2023-04-01T22:47:55;1.08;;;0.60;;
48987;SDS011;34799;51.440;-2.534;2023-04-01T22:53:24;1.50;;;0.57;;
48987;SDS011;34799;51.440;-2.534;2023-04-01T22:56:03;1.88;;;0.63;;
48987;SDS011;34799;51.440;-2.534;2023-04-01T22:58:34;3.85;;;0.80;;
48987;SDS011;34799;51.440;-2.534;2023-04-01T23:01:07;1.50;;;0.82;;
48987;SDS011;34799;51.440;-2.534;2023-04-01T23:03:43;2.05;;;0.63;;
48987;SDS011;34799;51.440;-2.534;2023-04-01T23:06:15;1.38;;;0.60;;
48987;SDS011;34799;51.440;-2.534;2023-04-01T23:12:04;1.27;;;0.70;;
48987;SDS011;34799;51.440;-2.534;2023-04-01T23:14:39;1.98;;;0.60;;
48987;SDS011;34799;51.440;-2.534;2023-04-01T23:20:13;1.20;;;0.77;;
48987;SDS011;34799;51.440;-2.534;2023-04-01T23:30:53;1.83;;;0.75;;
48987;SDS011;34799;51.440;-2.534;2023-04-01T23:33:22;2.17;;;0.85;;
48987;SDS011;34799;51.440;-2.534;2023-04-01T23:35:54;4.38;;;1.05;;
48987;SDS011;34799;51.440;-2.534;2023-04-01T23:38:23;3.00;;;1.00;;
48987;SDS011;34799;51.440;-2.534;2023-04-01T23:40:52;2.13;;;0.73;;
48987;SDS011;34799;51.440;-2.534;2023-04-01T23:43:23;2.95;;;0.80;;
48987;SDS011;34799;51.440;-2.534;2023-04-01T23:45:53;2.63;;;1.30;;
48987;SDS011;34799;51.440;-2.534;2023-04-01T23:48:26;4.47;;;1.55;;
48987;SDS011;34799;51.440;-2.534;2023-04-01T23:50:58;3.05;;;1.25;;
48987;SDS011;34799;51.440;-2.534;2023-04-01T23:53:28;3.80;;;1.30;;
48987;SDS011;34799;51.440;-2.534;2023-04-01T23:56:01;5.45;;;1.90;;
